sensor_id;sensor_type;location;lat;lon;timestamp;P1;durP1;ratioP1;P2;durP2;ratioP2
67500;SDS011;54349;52.528;19.760;2023-03-14T00:00:18;12.70;;;5.30;;
67500;SDS011;54349;52.528;19.760;2023-03-14T00:03:08;11.20;;;5.30;;
67500;SDS011;54349;52.528;19.760;2023-03-14T00:05:37;13.50;;;5.60;;
67500;SDS011;54349;52.528;19.760;2023-03-14T00:08:05;12.10;;;5.40;;
67500;SDS011;54349;52.528;19.760;2023-03-14T00:10:36;11.20;;;5.30;;
67500;SDS011;54349;52.528;19.760;2023-03-14T00:13:05;10.70;;;5.00;;
67500;SDS011;54349;52.528;19.760;2023-03-14T00:15:34;9.30;;;4.90;;
67500;SDS011;54349;52.528;19.760;2023-03-14T00:18:03;11.10;;;5.00;;
67500;SDS011;54349;52.528;19.760;2023-03-14T00:20:32;10.50;;;4.80;;
67500;SDS011;54349;52.528;19.760;2023-03-14T00:23:00;11.20;;;4.60;;
67500;SDS011;54349;52.528;19.760;2023-03-14T00:25:30;10.30;;;4.70;;
67500;SDS011;54349;52.528;19.760;2023-03-14T00:27:59;10.50;;;4.90;;
67500;SDS011;54349;52.528;19.760;2023-03-14T00:30:27;10.90;;;4.80;;
67500;SDS011;54349;52.528;19.760;2023-03-14T00:32:55;9.60;;;4.30;;
67500;SDS011;54349;52.528;19.760;2023-03-14T00:35:24;10.40;;;5.00;;
67500;SDS011;54349;52.528;19.760;2023-03-14T00:37:53;9.00;;;4.30;;
67500;SDS011;54349;52.528;19.760;2023-03-14T00:40:21;9.60;;;4.40;;
67500;SDS011;54349;52.528;19.760;2023-03-14T00:42:49;10.10;;;4.10;;
67500;SDS011;54349;52.528;19.760;2023-03-14T00:45:17;10.00;;;4.50;;
67500;SDS011;54349;52.528;19.760;2023-03-14T00:47:46;8.40;;;4.30;;
67500;SDS011;54349;52.528;19.760;2023-03-14T00:50:14;8.70;;;3.50;;
67500;SDS011;54349;52.528;19.760;2023-03-14T00:52:42;9.40;;;4.10;;
67500;SDS011;54349;52.528;19.760;2023-03-14T00:55:11;8.20;;;4.00;;
67500;SDS011;54349;52.528;19.760;2023-03-14T00:57:39;8.20;;;3.60;;
67500;SDS011;54349;52.528;19.760;2023-03-14T01:00:08;8.50;;;3.90;;
67500;SDS011;54349;52.528;19.760;2023-03-14T01:02:39;8.90;;;4.00;;
67500;SDS011;54349;52.528;19.760;2023-03-14T01:05:08;6.90;;;3.40;;
67500;SDS011;54349;52.528;19.760;2023-03-14T01:07:37;8.20;;;3.70;;
67500;SDS011;54349;52.528;19.760;2023-03-14T01:10:06;8.10;;;3.70;;
67500;SDS011;54349;52.528;19.760;2023-03-14T01:12:40;7.40;;;3.40;;
67500;SDS011;54349;52.528;19.760;2023-03-14T01:15:09;8.70;;;3.60;;
67500;SDS011;54349;52.528;19.760;2023-03-14T01:17:38;7.60;;;3.50;;
67500;SDS011;54349;52.528;19.760;2023-03-14T01:20:10;6.80;;;3.50;;
67500;SDS011;54349;52.528;19.760;2023-03-14T01:22:43;7.10;;;3.40;;
67500;SDS011;54349;52.528;19.760;2023-03-14T01:25:14;7.20;;;3.40;;
67500;SDS011;54349;52.528;19.760;2023-03-14T01:27:44;7.90;;;3.60;;
67500;SDS011;54349;52.528;19.760;2023-03-14T01:30:14;6.70;;;3.10;;
67500;SDS011;54349;52.528;19.760;2023-03-14T01:32:42;8.10;;;3.50;;
67500;SDS011;54349;52.528;19.760;2023-03-14T01:35:11;7.60;;;3.50;;
67500;SDS011;54349;52.528;19.760;2023-03-14T01:37:40;7.40;;;3.10;;
67500;SDS011;54349;52.528;19.760;2023-03-14T01:40:12;7.80;;;3.40;;
67500;SDS011;54349;52.528;19.760;2023-03-14T01:42:55;8.50;;;3.10;;
67500;SDS011;54349;52.528;19.760;2023-03-14T01:48:37;6.70;;;3.10;;
67500;SDS011;54349;52.528;19.760;2023-03-14T01:51:22;6.70;;;3.10;;
67500;SDS011;54349;52.528;19.760;2023-03-14T01:56:58;6.40;;;2.90;;
67500;SDS011;54349;52.528;19.760;2023-03-14T01:59:35;5.70;;;2.80;;
67500;SDS011;54349;52.528;19.760;2023-03-14T02:02:07;7.30;;;3.20;;
67500;SDS011;54349;52.528;19.760;2023-03-14T02:04:38;5.20;;;2.80;;
67500;SDS011;54349;52.528;19.760;2023-03-14T02:07:13;5.80;;;3.00;;
67500;SDS011;54349;52.528;19.760;2023-03-14T02:09:56;7.00;;;3.10;;
67500;SDS011;54349;52.528;19.760;2023-03-14T02:12:31;6.30;;;2.80;;
67500;SDS011;54349;52.528;19.760;2023-03-14T02:15:26;5.90;;;2.80;;
67500;SDS011;54349;52.528;19.760;2023-03-14T02:18:06;5.70;;;2.70;;
67500;SDS011;54349;52.528;19.760;2023-03-14T02:24:49;6.20;;;3.10;;
67500;SDS011;54349;52.528;19.760;2023-03-14T02:27:22;5.60;;;2.50;;
67500;SDS011;54349;52.528;19.760;2023-03-14T02:29:55;5.90;;;2.80;;
67500;SDS011;54349;52.528;19.760;2023-03-14T02:32:29;5.10;;;2.60;;
67500;SDS011;54349;52.528;19.760;2023-03-14T02:35:03;4.50;;;2.40;;
67500;SDS011;54349;52.528;19.760;2023-03-14T02:37:38;5.70;;;2.70;;
67500;SDS011;54349;52.528;19.760;2023-03-14T02:40:11;5.90;;;2.80;;
67500;SDS011;54349;52.528;19.760;2023-03-14T02:42:40;4.90;;;2.50;;
67500;SDS011;54349;52.528;19.760;2023-03-14T02:47:43;5.30;;;2.90;;
67500;SDS011;54349;52.528;19.760;2023-03-14T02:50:21;5.00;;;2.30;;
67500;SDS011;54349;52.528;19.760;2023-03-14T02:52:54;4.30;;;2.30;;
67500;SDS011;54349;52.528;19.760;2023-03-14T02:55:24;5.80;;;2.60;;
67500;SDS011;54349;52.528;19.760;2023-03-14T02:57:56;4.90;;;2.30;;
67500;SDS011;54349;52.528;19.760;2023-03-14T03:00:25;5.60;;;2.40;;
67500;SDS011;54349;52.528;19.760;2023-03-14T03:02:54;5.20;;;2.40;;
67500;SDS011;54349;52.528;19.760;2023-03-14T03:05:22;4.70;;;2.40;;
67500;SDS011;54349;52.528;19.760;2023-03-14T03:07:51;4.20;;;2.20;;
67500;SDS011;54349;52.528;19.760;2023-03-14T03:10:20;4.40;;;2.30;;
67500;SDS011;54349;52.528;19.760;2023-03-14T03:12:48;4.30;;;2.30;;
67500;SDS011;54349;52.528;19.760;2023-03-14T03:15:17;5.90;;;2.70;;
67500;SDS011;54349;52.528;19.760;2023-03-14T03:17:45;4.70;;;2.20;;
67500;SDS011;54349;52.528;19.760;2023-03-14T03:20:13;4.70;;;2.40;;
67500;SDS011;54349;52.528;19.760;2023-03-14T03:22:41;5.00;;;2.30;;
67500;SDS011;54349;52.528;19.760;2023-03-14T03:25:10;5.10;;;2.30;;
67500;SDS011;54349;52.528;19.760;2023-03-14T03:27:38;3.70;;;2.20;;
67500;SDS011;54349;52.528;19.760;2023-03-14T03:30:08;4.50;;;2.20;;
67500;SDS011;54349;52.528;19.760;2023-03-14T03:32:37;4.40;;;2.20;;
67500;SDS011;54349;52.528;19.760;2023-03-14T03:35:06;3.70;;;1.90;;
67500;SDS011;54349;52.528;19.760;2023-03-14T03:37:37;4.00;;;2.10;;
67500;SDS011;54349;52.528;19.760;2023-03-14T03:40:08;4.80;;;2.30;;
67500;SDS011;54349;52.528;19.760;2023-03-14T03:42:37;4.20;;;2.10;;
67500;SDS011;54349;52.528;19.760;2023-03-14T03:45:08;5.00;;;2.10;;
67500;SDS011;54349;52.528;19.760;2023-03-14T03:47:42;4.30;;;2.10;;
67500;SDS011;54349;52.528;19.760;2023-03-14T03:50:11;4.60;;;2.30;;
67500;SDS011;54349;52.528;19.760;2023-03-14T03:52:39;3.90;;;1.90;;
67500;SDS011;54349;52.528;19.760;2023-03-14T03:55:08;4.10;;;2.30;;
67500;SDS011;54349;52.528;19.760;2023-03-14T03:57:37;4.50;;;2.10;;
67500;SDS011;54349;52.528;19.760;2023-03-14T04:00:06;4.70;;;2.30;;
67500;SDS011;54349;52.528;19.760;2023-03-14T04:02:41;4.20;;;1.90;;
67500;SDS011;54349;52.528;19.760;2023-03-14T04:05:14;3.90;;;2.00;;
67500;SDS011;54349;52.528;19.760;2023-03-14T04:07:58;3.70;;;2.00;;
67500;SDS011;54349;52.528;19.760;2023-03-14T04:10:29;4.30;;;2.10;;
67500;SDS011;54349;52.528;19.760;2023-03-14T04:13:13;4.00;;;2.30;;
67500;SDS011;54349;52.528;19.760;2023-03-14T04:15:43;3.60;;;2.00;;
67500;SDS011;54349;52.528;19.760;2023-03-14T04:18:18;3.80;;;2.10;;
67500;SDS011;54349;52.528;19.760;2023-03-14T04:20:52;3.80;;;2.00;;
67500;SDS011;54349;52.528;19.760;2023-03-14T04:23:31;3.40;;;2.10;;
67500;SDS011;54349;52.528;19.760;2023-03-14T04:26:01;3.40;;;1.90;;
67500;SDS011;54349;52.528;19.760;2023-03-14T04:28:32;3.50;;;2.00;;
67500;SDS011;54349;52.528;19.760;2023-03-14T04:31:07;3.50;;;1.90;;
67500;SDS011;54349;52.528;19.760;2023-03-14T04:33:42;3.00;;;1.90;;
67500;SDS011;54349;52.528;19.760;2023-03-14T04:36:14;3.50;;;1.80;;
67500;SDS011;54349;52.528;19.760;2023-03-14T04:38:43;2.90;;;1.90;;
67500;SDS011;54349;52.528;19.760;2023-03-14T04:41:11;3.60;;;2.00;;
67500;SDS011;54349;52.528;19.760;2023-03-14T04:43:40;3.90;;;2.00;;
67500;SDS011;54349;52.528;19.760;2023-03-14T04:46:11;3.50;;;1.80;;
67500;SDS011;54349;52.528;19.760;2023-03-14T04:48:40;3.40;;;1.60;;
67500;SDS011;54349;52.528;19.760;2023-03-14T04:51:09;3.60;;;1.90;;
67500;SDS011;54349;52.528;19.760;2023-03-14T04:53:37;3.90;;;1.80;;
67500;SDS011;54349;52.528;19.760;2023-03-14T04:56:10;4.20;;;1.80;;
67500;SDS011;54349;52.528;19.760;2023-03-14T04:58:43;3.80;;;2.10;;
67500;SDS011;54349;52.528;19.760;2023-03-14T05:01:15;2.90;;;1.70;;
67500;SDS011;54349;52.528;19.760;2023-03-14T05:04:01;3.10;;;1.70;;
67500;SDS011;54349;52.528;19.760;2023-03-14T05:06:46;3.70;;;2.00;;
67500;SDS011;54349;52.528;19.760;2023-03-14T05:09:44;3.20;;;1.60;;
67500;SDS011;54349;52.528;19.760;2023-03-14T05:12:33;3.30;;;1.80;;
67500;SDS011;54349;52.528;19.760;2023-03-14T05:15:21;2.90;;;1.60;;
67500;SDS011;54349;52.528;19.760;2023-03-14T05:18:09;2.60;;;1.60;;
67500;SDS011;54349;52.528;19.760;2023-03-14T05:20:58;4.20;;;1.90;;
67500;SDS011;54349;52.528;19.760;2023-03-14T05:23:45;3.10;;;1.70;;
67500;SDS011;54349;52.528;19.760;2023-03-14T05:26:50;2.60;;;1.60;;
67500;SDS011;54349;52.528;19.760;2023-03-14T05:29:37;3.10;;;1.70;;
67500;SDS011;54349;52.528;19.760;2023-03-14T05:32:21;3.10;;;1.80;;
67500;SDS011;54349;52.528;19.760;2023-03-14T05:37:52;3.30;;;2.00;;
67500;SDS011;54349;52.528;19.760;2023-03-14T05:40:57;4.30;;;2.20;;
67500;SDS011;54349;52.528;19.760;2023-03-14T05:43:44;3.90;;;2.00;;
67500;SDS011;54349;52.528;19.760;2023-03-14T05:46:34;3.60;;;2.10;;
67500;SDS011;54349;52.528;19.760;2023-03-14T05:49:14;4.00;;;2.00;;
67500;SDS011;54349;52.528;19.760;2023-03-14T05:52:02;3.50;;;1.90;;
67500;SDS011;54349;52.528;19.760;2023-03-14T05:54:55;4.10;;;2.00;;
67500;SDS011;54349;52.528;19.760;2023-03-14T05:57:37;4.10;;;2.10;;
67500;SDS011;54349;52.528;19.760;2023-03-14T06:00:20;3.90;;;2.10;;
67500;SDS011;54349;52.528;19.760;2023-03-14T06:03:02;4.40;;;2.30;;
67500;SDS011;54349;52.528;19.760;2023-03-14T06:05:33;3.60;;;2.00;;
67500;SDS011;54349;52.528;19.760;2023-03-14T06:08:01;4.10;;;2.00;;
67500;SDS011;54349;52.528;19.760;2023-03-14T06:10:31;4.40;;;2.10;;
67500;SDS011;54349;52.528;19.760;2023-03-14T06:13:00;3.30;;;1.80;;
67500;SDS011;54349;52.528;19.760;2023-03-14T06:15:29;4.60;;;2.10;;
67500;SDS011;54349;52.528;19.760;2023-03-14T06:17:57;4.00;;;1.80;;
67500;SDS011;54349;52.528;19.760;2023-03-14T06:20:26;4.10;;;2.10;;
67500;SDS011;54349;52.528;19.760;2023-03-14T06:22:54;3.50;;;2.00;;
67500;SDS011;54349;52.528;19.760;2023-03-14T06:25:23;4.40;;;2.00;;
67500;SDS011;54349;52.528;19.760;2023-03-14T06:27:51;4.20;;;2.30;;
67500;SDS011;54349;52.528;19.760;2023-03-14T06:30:19;4.10;;;2.10;;
67500;SDS011;54349;52.528;19.760;2023-03-14T06:32:49;3.30;;;2.10;;
67500;SDS011;54349;52.528;19.760;2023-03-14T06:35:17;3.90;;;2.00;;
67500;SDS011;54349;52.528;19.760;2023-03-14T06:37:46;4.80;;;2.20;;
67500;SDS011;54349;52.528;19.760;2023-03-14T06:40:14;3.50;;;2.10;;
67500;SDS011;54349;52.528;19.760;2023-03-14T06:42:52;4.40;;;2.10;;
67500;SDS011;54349;52.528;19.760;2023-03-14T06:45:21;3.80;;;1.90;;
67500;SDS011;54349;52.528;19.760;2023-03-14T06:47:50;3.70;;;2.10;;
67500;SDS011;54349;52.528;19.760;2023-03-14T06:50:20;3.90;;;2.20;;
67500;SDS011;54349;52.528;19.760;2023-03-14T06:52:50;5.80;;;2.60;;
67500;SDS011;54349;52.528;19.760;2023-03-14T06:55:23;13.20;;;4.30;;
67500;SDS011;54349;52.528;19.760;2023-03-14T06:57:51;11.70;;;3.90;;
67500;SDS011;54349;52.528;19.760;2023-03-14T07:00:20;12.50;;;4.50;;
67500;SDS011;54349;52.528;19.760;2023-03-14T07:02:52;13.70;;;4.70;;
67500;SDS011;54349;52.528;19.760;2023-03-14T07:05:25;11.30;;;4.50;;
67500;SDS011;54349;52.528;19.760;2023-03-14T07:07:55;10.10;;;4.40;;
67500;SDS011;54349;52.528;19.760;2023-03-14T07:10:26;13.30;;;4.80;;
67500;SDS011;54349;52.528;19.760;2023-03-14T07:12:56;12.40;;;4.50;;
67500;SDS011;54349;52.528;19.760;2023-03-14T07:15:25;10.80;;;4.50;;
67500;SDS011;54349;52.528;19.760;2023-03-14T07:17:57;11.50;;;4.90;;
67500;SDS011;54349;52.528;19.760;2023-03-14T07:20:26;11.70;;;4.70;;
67500;SDS011;54349;52.528;19.760;2023-03-14T07:22:55;10.90;;;4.60;;
67500;SDS011;54349;52.528;19.760;2023-03-14T07:25:34;10.70;;;4.20;;
67500;SDS011;54349;52.528;19.760;2023-03-14T07:28:02;12.60;;;4.50;;
67500;SDS011;54349;52.528;19.760;2023-03-14T07:30:31;12.50;;;4.80;;
67500;SDS011;54349;52.528;19.760;2023-03-14T07:33:02;11.60;;;4.20;;
67500;SDS011;54349;52.528;19.760;2023-03-14T07:35:31;14.10;;;4.80;;
67500;SDS011;54349;52.528;19.760;2023-03-14T07:38:01;12.90;;;4.70;;
67500;SDS011;54349;52.528;19.760;2023-03-14T07:40:34;9.80;;;4.10;;
67500;SDS011;54349;52.528;19.760;2023-03-14T07:43:03;11.70;;;4.30;;
67500;SDS011;54349;52.528;19.760;2023-03-14T07:45:46;11.00;;;4.30;;
67500;SDS011;54349;52.528;19.760;2023-03-14T07:48:17;8.80;;;3.90;;
67500;SDS011;54349;52.528;19.760;2023-03-14T07:50:50;10.70;;;4.50;;
67500;SDS011;54349;52.528;19.760;2023-03-14T07:53:21;10.80;;;4.20;;
67500;SDS011;54349;52.528;19.760;2023-03-14T07:55:51;10.20;;;4.20;;
67500;SDS011;54349;52.528;19.760;2023-03-14T07:58:20;12.20;;;4.50;;
67500;SDS011;54349;52.528;19.760;2023-03-14T08:00:50;10.10;;;4.20;;
67500;SDS011;54349;52.528;19.760;2023-03-14T08:03:19;8.30;;;4.00;;
67500;SDS011;54349;52.528;19.760;2023-03-14T08:05:48;10.20;;;3.90;;
67500;SDS011;54349;52.528;19.760;2023-03-14T08:08:18;9.70;;;4.20;;
67500;SDS011;54349;52.528;19.760;2023-03-14T08:10:47;8.70;;;3.90;;
67500;SDS011;54349;52.528;19.760;2023-03-14T08:13:16;9.10;;;3.90;;
67500;SDS011;54349;52.528;19.760;2023-03-14T08:15:48;9.40;;;4.00;;
67500;SDS011;54349;52.528;19.760;2023-03-14T08:18:17;8.90;;;3.70;;
67500;SDS011;54349;52.528;19.760;2023-03-14T08:20:45;9.70;;;3.60;;
67500;SDS011;54349;52.528;19.760;2023-03-14T08:23:13;10.60;;;4.00;;
67500;SDS011;54349;52.528;19.760;2023-03-14T08:25:41;8.70;;;3.90;;
67500;SDS011;54349;52.528;19.760;2023-03-14T08:28:11;9.30;;;4.00;;
67500;SDS011;54349;52.528;19.760;2023-03-14T08:30:40;8.40;;;4.10;;
67500;SDS011;54349;52.528;19.760;2023-03-14T08:33:15;9.00;;;4.00;;
67500;SDS011;54349;52.528;19.760;2023-03-14T08:35:45;8.10;;;3.70;;
67500;SDS011;54349;52.528;19.760;2023-03-14T08:38:15;10.00;;;4.30;;
67500;SDS011;54349;52.528;19.760;2023-03-14T08:40:43;10.10;;;3.90;;
67500;SDS011;54349;52.528;19.760;2023-03-14T08:43:12;10.70;;;3.70;;
67500;SDS011;54349;52.528;19.760;2023-03-14T08:45:41;8.70;;;3.50;;
67500;SDS011;54349;52.528;19.760;2023-03-14T08:48:10;7.70;;;4.00;;
67500;SDS011;54349;52.528;19.760;2023-03-14T08:50:39;8.30;;;4.00;;
67500;SDS011;54349;52.528;19.760;2023-03-14T08:53:09;9.40;;;3.70;;
67500;SDS011;54349;52.528;19.760;2023-03-14T08:55:39;9.20;;;3.70;;
67500;SDS011;54349;52.528;19.760;2023-03-14T08:58:10;7.40;;;3.60;;
67500;SDS011;54349;52.528;19.760;2023-03-14T09:00:40;8.30;;;3.80;;
67500;SDS011;54349;52.528;19.760;2023-03-14T09:03:10;8.90;;;3.70;;
67500;SDS011;54349;52.528;19.760;2023-03-14T09:05:40;10.00;;;3.80;;
67500;SDS011;54349;52.528;19.760;2023-03-14T09:08:09;10.10;;;3.80;;
67500;SDS011;54349;52.528;19.760;2023-03-14T09:10:38;7.40;;;3.50;;
67500;SDS011;54349;52.528;19.760;2023-03-14T09:13:09;6.80;;;3.70;;
67500;SDS011;54349;52.528;19.760;2023-03-14T09:15:40;7.80;;;3.40;;
67500;SDS011;54349;52.528;19.760;2023-03-14T09:18:10;7.00;;;3.20;;
67500;SDS011;54349;52.528;19.760;2023-03-14T09:20:40;7.90;;;3.70;;
67500;SDS011;54349;52.528;19.760;2023-03-14T09:23:10;8.90;;;3.60;;
67500;SDS011;54349;52.528;19.760;2023-03-14T09:25:41;6.90;;;3.60;;
67500;SDS011;54349;52.528;19.760;2023-03-14T09:28:10;6.70;;;3.60;;
67500;SDS011;54349;52.528;19.760;2023-03-14T09:30:43;8.20;;;3.80;;
67500;SDS011;54349;52.528;19.760;2023-03-14T09:33:13;7.60;;;3.50;;
67500;SDS011;54349;52.528;19.760;2023-03-14T09:35:42;8.00;;;3.50;;
67500;SDS011;54349;52.528;19.760;2023-03-14T09:38:11;7.90;;;3.50;;
67500;SDS011;54349;52.528;19.760;2023-03-14T09:40:40;6.60;;;3.20;;
67500;SDS011;54349;52.528;19.760;2023-03-14T09:43:11;6.90;;;3.10;;
67500;SDS011;54349;52.528;19.760;2023-03-14T09:45:44;8.90;;;3.80;;
67500;SDS011;54349;52.528;19.760;2023-03-14T09:48:19;7.20;;;3.50;;
67500;SDS011;54349;52.528;19.760;2023-03-14T09:50:51;8.70;;;3.40;;
67500;SDS011;54349;52.528;19.760;2023-03-14T09:53:42;6.00;;;3.20;;
67500;SDS011;54349;52.528;19.760;2023-03-14T09:56:23;8.30;;;3.40;;
67500;SDS011;54349;52.528;19.760;2023-03-14T09:58:56;6.90;;;3.10;;
67500;SDS011;54349;52.528;19.760;2023-03-14T10:01:29;7.70;;;3.10;;
67500;SDS011;54349;52.528;19.760;2023-03-14T10:04:07;6.50;;;3.30;;
67500;SDS011;54349;52.528;19.760;2023-03-14T10:06:41;6.30;;;3.00;;
67500;SDS011;54349;52.528;19.760;2023-03-14T10:09:20;7.10;;;3.10;;
67500;SDS011;54349;52.528;19.760;2023-03-14T10:11:57;7.40;;;3.10;;
67500;SDS011;54349;52.528;19.760;2023-03-14T10:14:37;7.20;;;3.40;;
67500;SDS011;54349;52.528;19.760;2023-03-14T10:17:16;7.90;;;3.60;;
67500;SDS011;54349;52.528;19.760;2023-03-14T10:19:53;6.50;;;3.10;;
67500;SDS011;54349;52.528;19.760;2023-03-14T10:22:29;7.30;;;3.50;;
67500;SDS011;54349;52.528;19.760;2023-03-14T10:25:05;12.60;;;4.30;;
67500;SDS011;54349;52.528;19.760;2023-03-14T10:27:35;101.40;;;33.60;;
67500;SDS011;54349;52.528;19.760;2023-03-14T10:30:06;116.20;;;42.60;;
67500;SDS011;54349;52.528;19.760;2023-03-14T10:32:55;34.10;;;13.20;;
67500;SDS011;54349;52.528;19.760;2023-03-14T10:35:24;21.90;;;9.00;;
67500;SDS011;54349;52.528;19.760;2023-03-14T10:38:02;20.80;;;7.90;;
67500;SDS011;54349;52.528;19.760;2023-03-14T10:40:47;20.30;;;7.70;;
67500;SDS011;54349;52.528;19.760;2023-03-14T10:43:23;42.90;;;18.10;;
67500;SDS011;54349;52.528;19.760;2023-03-14T10:46:14;52.00;;;19.00;;
67500;SDS011;54349;52.528;19.760;2023-03-14T10:49:06;47.50;;;18.90;;
67500;SDS011;54349;52.528;19.760;2023-03-14T10:51:35;147.90;;;50.40;;
67500;SDS011;54349;52.528;19.760;2023-03-14T10:54:21;115.30;;;44.00;;
67500;SDS011;54349;52.528;19.760;2023-03-14T10:57:01;65.30;;;25.20;;
67500;SDS011;54349;52.528;19.760;2023-03-14T10:59:37;46.60;;;17.60;;
67500;SDS011;54349;52.528;19.760;2023-03-14T11:08:57;200.60;;;62.50;;
67500;SDS011;54349;52.528;19.760;2023-03-14T11:11:35;103.20;;;35.70;;
67500;SDS011;54349;52.528;19.760;2023-03-14T11:14:23;114.40;;;41.10;;
67500;SDS011;54349;52.528;19.760;2023-03-14T11:20:42;116.70;;;39.20;;
67500;SDS011;54349;52.528;19.760;2023-03-14T11:23:16;112.20;;;39.10;;
67500;SDS011;54349;52.528;19.760;2023-03-14T11:28:46;134.20;;;49.40;;
67500;SDS011;54349;52.528;19.760;2023-03-14T11:31:28;99.00;;;35.20;;
67500;SDS011;54349;52.528;19.760;2023-03-14T11:34:28;84.50;;;30.20;;
67500;SDS011;54349;52.528;19.760;2023-03-14T11:37:06;96.90;;;34.00;;
67500;SDS011;54349;52.528;19.760;2023-03-14T11:39:51;150.30;;;48.30;;
67500;SDS011;54349;52.528;19.760;2023-03-14T11:42:43;94.00;;;32.60;;
67500;SDS011;54349;52.528;19.760;2023-03-14T11:45:19;77.70;;;28.30;;
67500;SDS011;54349;52.528;19.760;2023-03-14T11:50:44;70.80;;;26.40;;
67500;SDS011;54349;52.528;19.760;2023-03-14T11:53:23;70.50;;;27.40;;
67500;SDS011;54349;52.528;19.760;2023-03-14T11:56:13;59.80;;;23.80;;
67500;SDS011;54349;52.528;19.760;2023-03-14T11:59:00;62.60;;;23.30;;
67500;SDS011;54349;52.528;19.760;2023-03-14T12:01:49;62.10;;;23.50;;
67500;SDS011;54349;52.528;19.760;2023-03-14T12:05:25;58.50;;;23.50;;
67500;SDS011;54349;52.528;19.760;2023-03-14T12:13:20;53.10;;;21.60;;
67500;SDS011;54349;52.528;19.760;2023-03-14T12:15:57;54.10;;;19.00;;
67500;SDS011;54349;52.528;19.760;2023-03-14T12:18:30;48.10;;;19.50;;
67500;SDS011;54349;52.528;19.760;2023-03-14T12:21:03;49.80;;;19.30;;
67500;SDS011;54349;52.528;19.760;2023-03-14T12:23:37;46.10;;;19.10;;
67500;SDS011;54349;52.528;19.760;2023-03-14T12:26:19;44.80;;;18.50;;
67500;SDS011;54349;52.528;19.760;2023-03-14T12:42:36;41.00;;;16.70;;
67500;SDS011;54349;52.528;19.760;2023-03-14T12:45:32;38.80;;;15.80;;
67500;SDS011;54349;52.528;19.760;2023-03-14T12:48:22;35.10;;;14.40;;
67500;SDS011;54349;52.528;19.760;2023-03-14T12:51:03;35.30;;;15.50;;
67500;SDS011;54349;52.528;19.760;2023-03-14T12:59:36;29.80;;;13.10;;
67500;SDS011;54349;52.528;19.760;2023-03-14T13:07:28;28.60;;;12.10;;
67500;SDS011;54349;52.528;19.760;2023-03-14T13:10:25;26.80;;;12.00;;
67500;SDS011;54349;52.528;19.760;2023-03-14T13:12:57;28.30;;;12.20;;
67500;SDS011;54349;52.528;19.760;2023-03-14T13:15:38;26.50;;;11.60;;
67500;SDS011;54349;52.528;19.760;2023-03-14T13:18:15;28.70;;;12.30;;
67500;SDS011;54349;52.528;19.760;2023-03-14T13:21:19;22.50;;;10.80;;
67500;SDS011;54349;52.528;19.760;2023-03-14T13:23:56;23.20;;;10.00;;
67500;SDS011;54349;52.528;19.760;2023-03-14T13:26:36;23.00;;;10.30;;
67500;SDS011;54349;52.528;19.760;2023-03-14T13:29:17;24.70;;;10.10;;
67500;SDS011;54349;52.528;19.760;2023-03-14T13:31:51;24.70;;;10.80;;
67500;SDS011;54349;52.528;19.760;2023-03-14T13:34:20;23.70;;;10.40;;
67500;SDS011;54349;52.528;19.760;2023-03-14T13:36:52;20.60;;;9.30;;
67500;SDS011;54349;52.528;19.760;2023-03-14T13:39:23;19.60;;;9.00;;
67500;SDS011;54349;52.528;19.760;2023-03-14T13:41:54;22.00;;;9.50;;
67500;SDS011;54349;52.528;19.760;2023-03-14T13:44:30;19.40;;;8.80;;
67500;SDS011;54349;52.528;19.760;2023-03-14T13:49:32;16.50;;;8.10;;
67500;SDS011;54349;52.528;19.760;2023-03-14T13:52:42;20.60;;;8.20;;
67500;SDS011;54349;52.528;19.760;2023-03-14T13:55:18;18.90;;;7.90;;
67500;SDS011;54349;52.528;19.760;2023-03-14T13:57:51;19.40;;;8.40;;
67500;SDS011;54349;52.528;19.760;2023-03-14T14:00:26;19.00;;;8.20;;
67500;SDS011;54349;52.528;19.760;2023-03-14T14:02:56;15.80;;;7.80;;
67500;SDS011;54349;52.528;19.760;2023-03-14T14:05:28;19.10;;;7.90;;
67500;SDS011;54349;52.528;19.760;2023-03-14T14:07:57;17.90;;;7.70;;
67500;SDS011;54349;52.528;19.760;2023-03-14T14:10:26;16.40;;;7.70;;
67500;SDS011;54349;52.528;19.760;2023-03-14T14:13:02;16.70;;;7.30;;
67500;SDS011;54349;52.528;19.760;2023-03-14T14:15:39;16.70;;;7.50;;
67500;SDS011;54349;52.528;19.760;2023-03-14T14:18:13;15.90;;;6.90;;
67500;SDS011;54349;52.528;19.760;2023-03-14T14:20:45;17.30;;;7.20;;
67500;SDS011;54349;52.528;19.760;2023-03-14T14:23:20;20.10;;;7.90;;
67500;SDS011;54349;52.528;19.760;2023-03-14T14:25:53;21.00;;;8.10;;
67500;SDS011;54349;52.528;19.760;2023-03-14T14:31:17;18.70;;;8.30;;
67500;SDS011;54349;52.528;19.760;2023-03-14T14:34:00;19.70;;;8.80;;
67500;SDS011;54349;52.528;19.760;2023-03-14T14:36:48;18.20;;;8.50;;
67500;SDS011;54349;52.528;19.760;2023-03-14T14:39:20;16.80;;;8.20;;
67500;SDS011;54349;52.528;19.760;2023-03-14T14:41:55;19.30;;;8.40;;
67500;SDS011;54349;52.528;19.760;2023-03-14T14:44:30;19.40;;;8.60;;
67500;SDS011;54349;52.528;19.760;2023-03-14T14:47:05;15.80;;;7.90;;
67500;SDS011;54349;52.528;19.760;2023-03-14T14:49:34;16.90;;;7.70;;
67500;SDS011;54349;52.528;19.760;2023-03-14T14:54:53;16.50;;;7.40;;
67500;SDS011;54349;52.528;19.760;2023-03-14T14:57:28;14.90;;;6.70;;
67500;SDS011;54349;52.528;19.760;2023-03-14T15:00:10;15.40;;;6.80;;
67500;SDS011;54349;52.528;19.760;2023-03-14T15:02:49;15.50;;;6.60;;
67500;SDS011;54349;52.528;19.760;2023-03-14T15:05:24;12.80;;;6.30;;
67500;SDS011;54349;52.528;19.760;2023-03-14T15:07:55;17.00;;;7.10;;
67500;SDS011;54349;52.528;19.760;2023-03-14T15:10:25;13.80;;;6.10;;
67500;SDS011;54349;52.528;19.760;2023-03-14T15:12:54;12.40;;;5.60;;
67500;SDS011;54349;52.528;19.760;2023-03-14T15:15:24;13.50;;;5.90;;
67500;SDS011;54349;52.528;19.760;2023-03-14T15:17:53;11.20;;;5.50;;
67500;SDS011;54349;52.528;19.760;2023-03-14T15:20:24;13.70;;;5.80;;
67500;SDS011;54349;52.528;19.760;2023-03-14T15:22:54;10.80;;;5.70;;
67500;SDS011;54349;52.528;19.760;2023-03-14T15:25:22;12.40;;;5.90;;
67500;SDS011;54349;52.528;19.760;2023-03-14T15:28:28;11.70;;;5.90;;
67500;SDS011;54349;52.528;19.760;2023-03-14T15:33:27;11.10;;;5.40;;
67500;SDS011;54349;52.528;19.760;2023-03-14T15:35:57;11.40;;;4.90;;
67500;SDS011;54349;52.528;19.760;2023-03-14T15:38:26;11.20;;;4.70;;
67500;SDS011;54349;52.528;19.760;2023-03-14T15:40:54;10.80;;;5.10;;
67500;SDS011;54349;52.528;19.760;2023-03-14T15:43:23;11.00;;;5.50;;
67500;SDS011;54349;52.528;19.760;2023-03-14T15:45:54;11.00;;;5.50;;
67500;SDS011;54349;52.528;19.760;2023-03-14T15:48:25;10.50;;;4.90;;
67500;SDS011;54349;52.528;19.760;2023-03-14T15:50:54;10.00;;;4.80;;
67500;SDS011;54349;52.528;19.760;2023-03-14T15:53:22;10.70;;;4.80;;
67500;SDS011;54349;52.528;19.760;2023-03-14T15:55:51;9.30;;;4.70;;
67500;SDS011;54349;52.528;19.760;2023-03-14T15:58:20;11.00;;;4.60;;
67500;SDS011;54349;52.528;19.760;2023-03-14T16:00:49;10.00;;;4.30;;
67500;SDS011;54349;52.528;19.760;2023-03-14T16:03:18;9.80;;;4.40;;
67500;SDS011;54349;52.528;19.760;2023-03-14T16:05:47;9.40;;;4.50;;
67500;SDS011;54349;52.528;19.760;2023-03-14T16:08:16;8.40;;;4.20;;
67500;SDS011;54349;52.528;19.760;2023-03-14T16:10:48;9.10;;;4.00;;
67500;SDS011;54349;52.528;19.760;2023-03-14T16:13:16;7.80;;;3.90;;
67500;SDS011;54349;52.528;19.760;2023-03-14T16:16:13;8.20;;;3.90;;
67500;SDS011;54349;52.528;19.760;2023-03-14T16:18:42;9.30;;;4.60;;